Terminal Aerodrome Forecast
Issued by NWS

Home | Current Version | Previous Version | Text Only | Print | Product List | Glossary On
Versions: 1 2 3 4 5 6 7 8 9 10 11 12 13
000
FTUS46 KSEW 280529
TAFCLM
TAF
KCLM 280529Z 2806/2906 28006KT P6SM SCT090 BKN200
     FM281000 28003KT P6SM -RA BKN040 OVC080
     FM281400 29003KT P6SM -RA BKN025 OVC040
     FM282000 32004KT P6SM BKN030 OVC050 PROB30 2820/2824 -SHRA=

USA.gov is the U.S. government's official web portal to all federal, state and local government web resources and services.